»·PEaware :: UAL512 KSFO-KLAS

UAL512 :: KSFO-KLAS

FLIGHT INFORMATION

Flight Status: Arrived
Operator:
United Airlines
More flights by this operator :: More flights under this callsign
Pilot: Saso K. (7898)
Aircraft: AIRBUS A320
(A320)
More flights by this aircraft type
Origin: KSFO San Francisco Intl
United States
Destination: KLAS McCarran Intl
United States
More flights between these airports :: More routes between these airports
Route: +HYP210013 VIKSN Q162 ESSAA BTY SUNST4
File this flight plan on PilotEdge
Remarks: EET / KZLA0046 OPR / UAL
Altitude:
(Current/Filed)
37,000ft
Speed:
(Current/Filed)
458kts
Departed: 31-Oct-17 06:14 PM
Arrived: 31-Oct-17 07:31 PM
Distance/Time
Traveled:
359nm/1:17
Distance/Time
To Go:
Arrived

Flight Plot

Page will automatically refresh every two minutes.

Flight plan parsing failed; only flown route is shown


Map Options




Map Legend


Flown Route
Filed Route
Departure Airport
Arrival Airport
Navaid (VOR, NDB)
Fix

Horizontal Profiles

Position Reports

Time Latitude Longitude Heading Altitude Ground
Speed
31-Oct-17 17:48 37.620196 -122.389382 27 32ft 0kts
31-Oct-17 17:49 37.620196 -122.389382 27 32ft 0kts
31-Oct-17 17:50 37.620196 -122.389382 27 32ft 0kts
31-Oct-17 17:51 37.620196 -122.389382 27 32ft 0kts
31-Oct-17 17:52 37.620196 -122.389382 27 32ft 0kts
31-Oct-17 17:53 37.620196 -122.389382 27 32ft 0kts
31-Oct-17 17:54 37.620196 -122.389382 27 32ft 0kts
31-Oct-17 17:55 37.620196 -122.389382 27 32ft 0kts
31-Oct-17 17:56 37.620196 -122.389382 27 32ft 0kts
31-Oct-17 17:57 37.620196 -122.389382 27 32ft 0kts
31-Oct-17 17:58 37.620196 -122.389382 27 32ft 0kts
31-Oct-17 17:59 37.620196 -122.389382 27 32ft 0kts
31-Oct-17 18:00 37.620196 -122.389382 27 32ft 0kts
31-Oct-17 18:01 37.620196 -122.389382 27 32ft 0kts
31-Oct-17 18:02 37.620196 -122.389382 27 32ft 0kts
31-Oct-17 18:03 37.620196 -122.389382 27 32ft 0kts
31-Oct-17 18:04 37.620196 -122.389382 27 32ft 0kts
31-Oct-17 18:05 37.620196 -122.389383 27 32ft 0kts
31-Oct-17 18:06 37.619851 -122.389606 27 32ft 2kts
31-Oct-17 18:07 37.619386 -122.389680 319 32ft 2kts
31-Oct-17 18:08 37.619694 -122.390456 298 32ft 3kts
31-Oct-17 18:09 37.619729 -122.390539 298 32ft 0kts
31-Oct-17 18:10 37.619738 -122.390560 298 32ft 0kts
31-Oct-17 18:11 37.620674 -122.392044 12 32ft 9kts
31-Oct-17 18:12 37.622347 -122.388440 118 31ft 18kts
31-Oct-17 18:13 37.619661 -122.382010 118 32ft 23kts
31-Oct-17 18:14 37.614192 -122.381258 208 32ft 26kts
31-Oct-17 18:15 37.608805 -122.384562 133 32ft 11kts
31-Oct-17 18:16 37.608160 -122.382740 29 31ft 0kts
31-Oct-17 18:17 37.608160 -122.382740 29 31ft 0kts
31-Oct-17 18:18 37.608419 -122.382566 27 31ft 11kts
31-Oct-17 18:19 37.646307 -122.364046 4 1661ft 184kts
31-Oct-17 18:20 37.695184 -122.363159 329 4142ft 226kts
31-Oct-17 18:21 37.707536 -122.420833 245 6069ft 276kts
31-Oct-17 18:22 37.631956 -122.456888 184 9514ft 299kts
31-Oct-17 18:23 37.565038 -122.464926 183 11413ft 333kts
31-Oct-17 18:24 37.486687 -122.415749 139 13039ft 364kts
31-Oct-17 18:25 37.415642 -122.337139 121 15242ft 372kts
31-Oct-17 18:26 37.388518 -122.223393 102 17224ft 377kts
31-Oct-17 18:27 37.365985 -122.109253 102 18985ft 386kts
31-Oct-17 18:28 37.344797 -122.003189 102 20439ft 394kts
31-Oct-17 18:29 37.323072 -121.895094 102 21787ft 401kts
31-Oct-17 18:30 37.298622 -121.774139 102 22731ft 419kts
31-Oct-17 18:31 37.272607 -121.646155 101 23903ft 426kts
31-Oct-17 18:32 37.244844 -121.510383 101 25044ft 433kts
31-Oct-17 18:33 37.216036 -121.370420 101 26115ft 440kts
31-Oct-17 18:34 37.189362 -121.241647 101 27090ft 443kts
31-Oct-17 18:35 37.159837 -121.099936 101 28452ft 440kts
31-Oct-17 18:36 37.130210 -120.958706 102 29665ft 439kts
31-Oct-17 18:37 37.100027 -120.815752 101 30927ft 436kts
31-Oct-17 18:38 37.070199 -120.675381 101 31025ft 430kts
31-Oct-17 18:39 37.041405 -120.535264 93 31031ft 425kts
31-Oct-17 18:40 37.053590 -120.395606 78 31004ft 417kts
31-Oct-17 18:41 37.070433 -120.265735 79 30981ft 418kts
31-Oct-17 18:42 37.087874 -120.129527 79 30993ft 421kts
31-Oct-17 18:43 37.105041 -119.994278 79 31031ft 424kts
31-Oct-17 18:44 37.122381 -119.856371 79 31058ft 427kts
31-Oct-17 18:45 37.139616 -119.717955 79 31077ft 428kts
31-Oct-17 18:46 37.156398 -119.581863 79 31071ft 428kts
31-Oct-17 18:47 37.173319 -119.443259 79 31066ft 428kts
31-Oct-17 18:48 37.189591 -119.308611 80 31091ft 428kts
31-Oct-17 18:49 37.206171 -119.169416 80 31155ft 440kts
31-Oct-17 18:50 37.223504 -119.023994 80 31191ft 440kts
31-Oct-17 18:51 37.240733 -118.876963 80 31165ft 439kts
31-Oct-17 18:52 37.257723 -118.730105 80 31133ft 439kts
31-Oct-17 18:53 37.274741 -118.581334 80 31063ft 444kts
31-Oct-17 18:54 37.291683 -118.431834 80 31054ft 445kts
31-Oct-17 18:55 37.308159 -118.284731 81 31054ft 445kts
31-Oct-17 18:56 37.325045 -118.131995 81 31050ft 448kts
31-Oct-17 18:57 37.341901 -117.977923 81 31047ft 453kts
31-Oct-17 18:58 37.344409 -117.821831 94 31044ft 450kts
31-Oct-17 18:59 37.330840 -117.669132 94 31041ft 448kts
31-Oct-17 19:00 37.317184 -117.518296 94 31065ft 448kts
31-Oct-17 19:01 37.302676 -117.365438 98 31116ft 449kts
31-Oct-17 19:02 37.252857 -117.235722 124 31111ft 461kts
31-Oct-17 19:03 37.176416 -117.110273 124 31115ft 461kts
31-Oct-17 19:04 37.099616 -116.984628 124 31114ft 460kts
31-Oct-17 19:05 37.001145 -116.886545 147 30294ft 466kts
31-Oct-17 19:06 36.892122 -116.811030 148 27645ft 460kts
31-Oct-17 19:07 36.789980 -116.731048 135 24730ft 454kts
31-Oct-17 19:08 36.682520 -116.661124 162 22236ft 448kts
31-Oct-17 19:09 36.566430 -116.622075 162 19726ft 432kts
31-Oct-17 19:10 36.454267 -116.582411 162 17145ft 418kts
31-Oct-17 19:11 36.345553 -116.542531 162 16051ft 416kts
31-Oct-17 19:12 36.237401 -116.502679 162 16048ft 414kts
31-Oct-17 19:13 36.130048 -116.459746 149 16050ft 414kts
31-Oct-17 19:14 36.085442 -116.342070 80 16044ft 416kts
31-Oct-17 19:15 36.119198 -116.210956 73 16047ft 417kts
31-Oct-17 19:16 36.153615 -116.080702 73 16045ft 373kts
31-Oct-17 19:17 36.182050 -115.972135 73 16033ft 319kts
31-Oct-17 19:18 36.204780 -115.869417 96 15804ft 315kts
31-Oct-17 19:19 36.172469 -115.771686 115 14978ft 310kts
31-Oct-17 19:20 36.131401 -115.672562 118 14115ft 324kts
31-Oct-17 19:21 36.097371 -115.579564 112 12200ft 296kts
31-Oct-17 19:22 36.067383 -115.487056 112 11627ft 300kts
31-Oct-17 19:23 36.038194 -115.397255 112 11188ft 295kts
31-Oct-17 19:24 36.026218 -115.308820 96 10287ft 278kts
31-Oct-17 19:25 36.019800 -115.220861 96 9244ft 266kts
31-Oct-17 19:26 36.013925 -115.135543 96 8313ft 258kts
31-Oct-17 19:27 36.008637 -115.054152 95 8047ft 239kts
31-Oct-17 19:28 36.003823 -114.972732 96 8030ft 239kts
31-Oct-17 19:29 35.999031 -114.893862 96 7041ft 238kts
31-Oct-17 19:30 36.041649 -114.847997 344 6004ft 244kts
31-Oct-17 19:31 36.073818 -114.909496 267 5263ft 227kts
31-Oct-17 19:32 36.073954 -114.984792 267 4310ft 229kts
31-Oct-17 19:33 36.076123 -115.057309 268 2982ft 205kts
31-Oct-17 19:34 36.076413 -115.110049 267 2303ft 149kts
31-Oct-17 19:35 36.076385 -115.147958 271 2108ft 44kts
31-Oct-17 19:36 36.077471 -115.151125 8 2118ft 1kts
31-Oct-17 19:37 36.077898 -115.149062 95 2109ft 15kts
31-Oct-17 19:38 36.077504 -115.142872 76 2090ft 11kts
31-Oct-17 19:39 36.081016 -115.142488 359 2082ft 15kts
31-Oct-17 19:40 36.084219 -115.138833 89 2063ft 18kts
31-Oct-17 19:41 36.082937 -115.138757 228 2066ft 0kts
31-Oct-17 19:42 36.082935 -115.138759 228 2066ft 0kts

Navigation Log

Ident Type
Flight plan parsing failed, navigation log unavailable